Time;durP1;ratioP1;P1;durP2;ratioP2;P2;SDS_P1;SDS_P2;PMS_P1;PMS_P2;Temp;Humidity;BMP_temperature;BMP_pressure;BME280_temperature;BME280_humidity;BME280_pressure;Samples;Min_cycle;Max_cycle;Signal;HPM_P1;HPM_P2
2021/11/21 00:00:23;;;;;;;;;;;;;;;6.19;70.09;99659.92;1727648;83;20214;-68
2021/11/21 00:02:51;;;;;;;;;;;;;;;6.16;70.21;99663.02;1727742;83;20484;-68
2021/11/21 00:05:20;;;;;;;;;;;;;;;6.18;70.22;99658.23;1727640;82;20163;-67
2021/11/21 00:07:49;;;;;;;;;;;;;;;6.21;70.20;99658.70;1727562;83;20218;-69
2021/11/21 00:10:18;;;;;;;;;;;;;;;6.20;70.25;99667.89;1727639;82;20139;-68
2021/11/21 00:12:47;;;;;;;;;;;;;;;6.21;70.28;99667.38;1728004;83;20188;-69
2021/11/21 00:15:16;;;;;;;;;;;;;;;6.22;70.26;99659.03;1727933;82;20166;-69
2021/11/21 00:17:44;;;;;;;;;;;;;;;6.21;70.23;99664.66;1728101;83;20449;-68
2021/11/21 00:20:16;;;;;;;;;;;;;;;6.18;70.38;99675.39;1727790;83;20183;-68
2021/11/21 00:22:45;;;;;;;;;;;;;;;6.14;70.47;99667.28;1728037;83;20162;-68
2021/11/21 00:25:13;;;;;;;;;;;;;;;6.12;70.61;99672.58;1727825;82;20241;-67
2021/11/21 00:27:41;;;;;;;;;;;;;;;6.14;70.66;99680.03;1727837;82;20158;-68
2021/11/21 00:30:10;;;;;;;;;;;;;;;6.15;70.81;99673.05;1727839;83;20243;-68
2021/11/21 00:32:38;;;;;;;;;;;;;;;6.14;70.82;99675.95;1727901;83;20537;-70
2021/11/21 00:35:07;;;;;;;;;;;;;;;6.15;70.84;99682.57;1727839;83;20167;-69
2021/11/21 00:37:35;;;;;;;;;;;;;;;6.13;70.94;99673.75;1728025;82;20190;-68
2021/11/21 00:40:08;;;;;;;;;;;;;;;6.11;71.12;99670.89;1727906;83;20287;-68
2021/11/21 00:42:38;;;;;;;;;;;;;;;6.10;71.28;99662.41;1727825;83;20198;-68
2021/11/21 00:45:07;;;;;;;;;;;;;;;6.06;71.46;99646.98;1727806;83;20504;-67
2021/11/21 00:47:38;;;;;;;;;;;;;;;6.03;71.66;99652.80;1727971;83;20566;-67
2021/11/21 00:50:07;;;;;;;;;;;;;;;6.05;71.82;99656.17;1727855;82;20155;-67
2021/11/21 00:52:37;;;;;;;;;;;;;;;6.08;71.84;99659.03;1727886;83;20191;-67
2021/11/21 00:55:13;;;;;;;;;;;;;;;6.13;71.89;99643.84;1727764;83;20190;-68
2021/11/21 00:57:41;;;;;;;;;;;;;;;6.15;71.95;99637.70;1727992;83;20162;-68
2021/11/21 01:00:14;;;;;;;;;;;;;;;6.16;72.13;99639.38;1727855;83;20196;-68
2021/11/21 01:02:42;;;;;;;;;;;;;;;6.14;72.36;99629.20;1727921;83;20174;-67
2021/11/21 01:05:11;;;;;;;;;;;;;;;6.15;72.53;99634.97;1728003;83;20198;-67
2021/11/21 01:07:39;;;;;;;;;;;;;;;6.15;72.66;99621.38;1727899;83;20472;-67
2021/11/21 01:10:09;;;;;;;;;;;;;;;6.18;72.80;99628.31;1727086;82;20289;-68
2021/11/21 01:12:43;;;;;;;;;;;;;;;6.26;72.75;99618.70;1722891;83;20464;-69
2021/11/21 01:15:14;;;;;;;;;;;;;;;6.31;72.87;99611.66;1722926;83;20186;-70
2021/11/21 01:17:42;;;;;;;;;;;;;;;6.33;72.97;99612.82;1722984;83;20163;-67
2021/11/21 01:20:11;;;;;;;;;;;;;;;6.34;73.21;99607.70;1722793;83;20202;-68
2021/11/21 01:22:39;;;;;;;;;;;;;;;6.36;73.48;99603.77;1722828;83;20586;-68
2021/11/21 01:25:08;;;;;;;;;;;;;;;6.36;73.72;99600.20;1723059;83;20194;-67
2021/11/21 01:27:37;;;;;;;;;;;;;;;6.39;73.88;99589.45;1723027;83;20139;-68
2021/11/21 01:30:07;;;;;;;;;;;;;;;6.43;74.04;99591.59;1723076;83;20498;-68
2021/11/21 01:32:35;;;;;;;;;;;;;;;6.44;74.23;99589.20;1723094;83;20198;-71
2021/11/21 01:35:03;;;;;;;;;;;;;;;6.43;74.45;99590.23;1722982;83;20469;-67
2021/11/21 01:37:33;;;;;;;;;;;;;;;6.46;74.55;99587.14;1722835;83;20214;-68
2021/11/21 01:40:01;;;;;;;;;;;;;;;6.49;74.58;99583.19;1722945;83;20143;-68
2021/11/21 01:42:29;;;;;;;;;;;;;;;6.49;74.59;99582.67;1722923;83;20219;-67
2021/11/21 01:44:58;;;;;;;;;;;;;;;6.51;74.59;99586.59;1722846;83;20456;-67
2021/11/21 01:47:26;;;;;;;;;;;;;;;6.56;74.52;99579.54;1722919;83;20175;-68
2021/11/21 01:49:55;;;;;;;;;;;;;;;6.56;74.45;99583.63;1722951;83;20231;-67
2021/11/21 01:52:23;;;;;;;;;;;;;;;6.54;74.51;99572.09;1723236;83;20441;-66
2021/11/21 01:54:52;;;;;;;;;;;;;;;6.54;74.77;99572.09;1722736;83;20150;-66
2021/11/21 01:57:20;;;;;;;;;;;;;;;6.52;74.94;99559.19;1723060;83;20159;-66
2021/11/21 01:59:50;;;;;;;;;;;;;;;6.55;75.08;99567.48;1722898;83;20210;-67
2021/11/21 02:02:19;;;;;;;;;;;;;;;6.58;75.16;99563.86;1723142;83;20206;-68
2021/11/21 02:04:47;;;;;;;;;;;;;;;6.63;75.24;99557.33;1722936;83;20262;-66
2021/11/21 02:07:16;;;;;;;;;;;;;;;6.67;75.39;99563.23;1722843;83;20155;-67
2021/11/21 02:09:45;;;;;;;;;;;;;;;6.69;75.53;99558.42;1722715;83;20219;-67
2021/11/21 02:12:13;;;;;;;;;;;;;;;6.70;75.84;99564.20;1726817;83;20151;-67
2021/11/21 02:14:41;;;;;;;;;;;;;;;6.70;76.03;99564.72;1727444;82;20191;-68
2021/11/21 02:17:10;;;;;;;;;;;;;;;6.70;76.31;99563.36;1727686;83;20546;-72
2021/11/21 02:19:38;;;;;;;;;;;;;;;6.71;76.55;99560.44;1727929;83;20956;-67
2021/11/21 02:22:07;;;;;;;;;;;;;;;6.74;76.76;99559.21;1727825;82;20170;-68
2021/11/21 02:24:36;;;;;;;;;;;;;;;6.77;76.90;99558.83;1727627;83;20190;-67
2021/11/21 02:27:04;;;;;;;;;;;;;;;6.78;77.26;99555.91;1727598;83;20465;-67
2021/11/21 02:29:33;;;;;;;;;;;;;;;6.79;77.46;99552.66;1727320;82;20194;-67
2021/11/21 02:32:02;;;;;;;;;;;;;;;6.79;77.68;99552.66;1727815;83;20550;-67
2021/11/21 02:34:31;;;;;;;;;;;;;;;6.79;78.08;99548.58;1727564;82;20178;-66
2021/11/21 02:37:01;;;;;;;;;;;;;;;6.83;78.32;99552.08;1727533;83;20202;-67
2021/11/21 02:39:29;;;;;;;;;;;;;;;6.89;78.33;99554.02;1727466;82;20554;-68
2021/11/21 02:41:58;;;;;;;;;;;;;;;6.95;78.21;99554.61;1727719;83;20477;-68
2021/11/21 02:44:29;;;;;;;;;;;;;;;6.99;78.21;99548.25;1727742;83;20480;-67
2021/11/21 02:46:57;;;;;;;;;;;;;;;6.99;78.28;99531.91;1727278;83;20528;-66
2021/11/21 02:49:26;;;;;;;;;;;;;;;7.01;78.39;99538.00;1727368;82;20154;-66
2021/11/21 02:51:54;;;;;;;;;;;;;;;7.02;78.65;99523.34;1727519;83;20507;-68
2021/11/21 02:54:23;;;;;;;;;;;;;;;7.04;78.72;99527.23;1727868;82;20543;-66
2021/11/21 02:56:51;;;;;;;;;;;;;;;7.05;78.72;99518.88;1727459;83;20537;-66
2021/11/21 02:59:26;;;;;;;;;;;;;;;7.07;78.78;99510.50;1727424;83;20652;-66
2021/11/21 03:01:55;;;;;;;;;;;;;;;7.08;78.89;99507.58;1727546;83;20320;-67
2021/11/21 03:04:23;;;;;;;;;;;;;;;7.07;79.06;99505.90;1727497;83;20179;-67
2021/11/21 03:06:52;;;;;;;;;;;;;;;7.07;79.24;99508.62;1727516;83;20150;-70
2021/11/21 03:09:22;;;;;;;;;;;;;;;7.07;79.34;99505.05;1727682;83;20597;-66
2021/11/21 03:11:52;;;;;;;;;;;;;;;7.10;79.38;99503.30;1727559;83;20174;-67
2021/11/21 03:14:20;;;;;;;;;;;;;;;7.14;79.59;99500.50;1709349;83;20155;-66
2021/11/21 03:16:49;;;;;;;;;;;;;;;7.15;79.53;99497.61;1727789;83;20574;-66
2021/11/21 03:19:17;;;;;;;;;;;;;;;7.15;79.65;99496.73;1727967;83;20187;-67
2021/11/21 03:21:46;;;;;;;;;;;;;;;7.16;79.70;99503.91;1727573;83;20476;-68
2021/11/21 03:24:14;;;;;;;;;;;;;;;7.13;79.81;99494.21;1728061;83;20222;-67
2021/11/21 03:26:43;;;;;;;;;;;;;;;7.13;79.89;99501.02;1727609;83;20238;-68
2021/11/21 03:29:12;;;;;;;;;;;;;;;7.16;79.98;99499.30;1727657;83;20159;-67
2021/11/21 03:31:41;;;;;;;;;;;;;;;7.19;80.03;99501.62;1727795;83;20150;-66
2021/11/21 03:34:11;;;;;;;;;;;;;;;7.22;80.09;99511.28;1676745;85;20209;-66
2021/11/21 03:36:40;;;;;;;;;;;;;;;7.23;80.22;99517.05;1735278;82;20170;-66
2021/11/21 03:39:09;;;;;;;;;;;;;;;7.21;80.27;99517.77;1735187;83;20159;-68
2021/11/21 03:41:38;;;;;;;;;;;;;;;7.23;80.29;99513.81;1735308;83;20463;-66
2021/11/21 03:44:06;;;;;;;;;;;;;;;7.24;80.29;99511.93;1735223;83;20154;-67
2021/11/21 03:46:37;;;;;;;;;;;;;;;7.27;80.26;99519.19;1735021;83;20545;-67
2021/11/21 03:49:05;;;;;;;;;;;;;;;7.29;80.24;99519.83;1735236;83;20589;-66
2021/11/21 03:51:34;;;;;;;;;;;;;;;7.29;80.34;99520.34;1742911;81;20472;-67
2021/11/21 03:54:02;;;;;;;;;;;;;;;7.28;80.42;99511.33;1778886;81;20154;-66
2021/11/21 03:56:32;;;;;;;;;;;;;;;7.29;80.50;99507.56;1778753;81;20158;-66
2021/11/21 03:59:00;;;;;;;;;;;;;;;7.33;80.59;99511.25;1778439;81;20193;-67
2021/11/21 04:01:28;;;;;;;;;;;;;;;7.34;80.60;99504.25;1778393;81;20230;-66
2021/11/21 04:03:59;;;;;;;;;;;;;;;7.33;80.56;99505.29;1778490;81;20189;-66
2021/11/21 04:06:28;;;;;;;;;;;;;;;7.31;80.77;99501.40;1778535;80;20169;-66
2021/11/21 04:08:56;;;;;;;;;;;;;;;7.30;80.90;99510.61;1778813;79;20161;-68
2021/11/21 04:11:25;;;;;;;;;;;;;;;7.33;80.98;99508.53;1777768;79;20521;-68
2021/11/21 04:13:55;;;;;;;;;;;;;;;7.35;81.01;99503.72;1776052;81;20368;-68
2021/11/21 04:16:23;;;;;;;;;;;;;;;7.36;81.14;99499.96;1775997;81;20470;-68
2021/11/21 04:18:53;;;;;;;;;;;;;;;7.37;81.24;99512.02;1775951;81;20150;-66
2021/11/21 04:21:21;;;;;;;;;;;;;;;7.38;81.45;99508.78;1775914;80;20178;-67
2021/11/21 04:23:49;;;;;;;;;;;;;;;7.39;81.76;99509.94;1776062;81;20150;-67
2021/11/21 04:26:18;;;;;;;;;;;;;;;7.42;82.05;99510.06;1776189;81;20177;-67
2021/11/21 04:28:46;;;;;;;;;;;;;;;7.48;82.10;99505.17;1775909;81;20161;-67
2021/11/21 04:31:15;;;;;;;;;;;;;;;7.50;82.16;99500.37;1775972;81;20543;-68
2021/11/21 04:33:43;;;;;;;;;;;;;;;7.52;82.09;99506.46;1776108;81;20158;-68
2021/11/21 04:36:11;;;;;;;;;;;;;;;7.54;82.13;99500.29;1776107;81;20177;-66
2021/11/21 04:38:41;;;;;;;;;;;;;;;7.55;82.07;99500.61;1775890;81;20281;-67
2021/11/21 04:41:11;;;;;;;;;;;;;;;7.58;82.05;99497.48;1775981;81;20142;-67
2021/11/21 04:43:39;;;;;;;;;;;;;;;7.60;82.01;99494.03;1775989;79;20154;-66
2021/11/21 04:46:07;;;;;;;;;;;;;;;7.59;82.00;99497.28;1775991;81;20170;-67
2021/11/21 04:48:36;;;;;;;;;;;;;;;7.58;82.08;99494.76;1776458;81;20447;-67
2021/11/21 04:51:05;;;;;;;;;;;;;;;7.58;82.11;99492.03;1775894;81;20154;-67
2021/11/21 04:53:34;;;;;;;;;;;;;;;7.58;82.08;99497.48;1776246;81;20523;-67
2021/11/21 04:56:03;;;;;;;;;;;;;;;7.61;82.00;99487.02;1775982;81;20174;-70
2021/11/21 04:58:32;;;;;;;;;;;;;;;7.63;81.93;99490.38;1776218;81;20486;-66
2021/11/21 05:01:00;;;;;;;;;;;;;;;7.62;81.90;99493.31;1775967;81;20193;-66
2021/11/21 05:03:29;;;;;;;;;;;;;;;7.64;81.85;99499.41;1775903;81;20150;-68
2021/11/21 05:05:57;;;;;;;;;;;;;;;7.64;81.78;99501.61;1776035;79;20296;-67
2021/11/21 05:08:26;;;;;;;;;;;;;;;7.64;81.69;99500.77;1776270;81;20642;-66
2021/11/21 05:10:55;;;;;;;;;;;;;;;7.64;81.65;99503.50;1775912;81;20209;-68
2021/11/21 05:13:25;;;;;;;;;;;;;;;7.64;81.71;99502.97;1783912;80;20189;-67
2021/11/21 05:15:54;;;;;;;;;;;;;;;7.64;81.73;99508.95;1784217;79;20218;-68
2021/11/21 05:18:22;;;;;;;;;;;;;;;7.64;81.73;99507.58;1784347;80;20715;-67
2021/11/21 05:20:52;;;;;;;;;;;;;;;7.67;81.72;99509.06;1784314;79;20514;-66
2021/11/21 05:23:22;;;;;;;;;;;;;;;7.69;81.68;99502.38;1784227;80;20197;-67
2021/11/21 05:25:51;;;;;;;;;;;;;;;7.70;81.64;99491.78;1784455;79;20181;-67
2021/11/21 05:28:20;;;;;;;;;;;;;;;7.69;81.69;99484.65;1784246;80;20153;-68
2021/11/21 05:30:50;;;;;;;;;;;;;;;7.68;81.74;99483.48;1783892;80;20149;-67
2021/11/21 05:33:18;;;;;;;;;;;;;;;7.68;81.74;99484.84;1784113;80;20142;-67
2021/11/21 05:35:47;;;;;;;;;;;;;;;7.65;81.72;99483.37;1784503;80;20168;-67
2021/11/21 05:38:15;;;;;;;;;;;;;;;7.67;81.75;99477.72;1784338;80;20569;-69
2021/11/21 05:40:44;;;;;;;;;;;;;;;7.67;81.69;99477.72;1784182;80;20205;-67
2021/11/21 05:43:12;;;;;;;;;;;;;;;7.67;81.69;99474.98;1784088;79;20213;-68
2021/11/21 05:45:43;;;;;;;;;;;;;;;7.66;81.75;99474.67;1784121;80;20177;-67
2021/11/21 05:48:11;;;;;;;;;;;;;;;7.63;81.86;99470.46;1784412;80;20149;-67
2021/11/21 05:50:40;;;;;;;;;;;;;;;7.63;81.96;99475.91;1784269;80;20459;-67
2021/11/21 05:53:08;;;;;;;;;;;;;;;7.63;82.00;99471.83;1784148;80;20165;-68
2021/11/21 05:55:37;;;;;;;;;;;;;;;7.66;82.04;99478.76;1784201;80;20153;-67
2021/11/21 05:58:05;;;;;;;;;;;;;;;7.69;82.08;99474.27;1784403;80;20269;-67
2021/11/21 06:00:35;;;;;;;;;;;;;;;7.71;82.13;99481.20;1784146;79;20236;-67
2021/11/21 06:03:04;;;;;;;;;;;;;;;7.73;82.25;99470.94;1747140;81;20183;-68
2021/11/21 06:05:33;;;;;;;;;;;;;;;7.76;82.33;99469.69;1728521;83;20246;-67
2021/11/21 06:08:06;;;;;;;;;;;;;;;7.77;82.39;99468.12;1728591;83;20186;-68
2021/11/21 06:10:34;;;;;;;;;;;;;;;7.83;82.50;99475.52;1728428;83;20593;-66
2021/11/21 06:13:02;;;;;;;;;;;;;;;7.90;82.43;99474.19;1727924;82;20155;-68
2021/11/21 06:15:31;;;;;;;;;;;;;;;7.94;82.37;99474.94;1727863;83;20163;-69
2021/11/21 06:17:59;;;;;;;;;;;;;;;7.98;82.34;99474.02;1727794;82;20286;-66
2021/11/21 06:20:28;;;;;;;;;;;;;;;8.03;82.34;99474.77;1727739;83;20203;-68
2021/11/21 06:22:56;;;;;;;;;;;;;;;8.07;82.29;99470.58;1728219;83;20532;-67
2021/11/21 06:25:25;;;;;;;;;;;;;;;8.15;82.14;99473.97;1727740;83;20577;-68
2021/11/21 06:27:53;;;;;;;;;;;;;;;8.22;81.97;99469.89;1727792;83;20186;-68
2021/11/21 06:30:22;;;;;;;;;;;;;;;8.26;81.86;99469.28;1728076;83;20278;-67
2021/11/21 06:32:50;;;;;;;;;;;;;;;8.31;81.72;99481.47;1728021;83;20503;-69
2021/11/21 06:35:19;;;;;;;;;;;;;;;8.33;81.64;99465.23;1727723;83;20232;-67
2021/11/21 06:37:47;;;;;;;;;;;;;;;8.36;81.50;99459.37;1727870;83;20175;-67
2021/11/21 06:40:15;;;;;;;;;;;;;;;8.43;81.32;99469.77;1727974;83;20558;-66
2021/11/21 06:42:44;;;;;;;;;;;;;;;8.49;81.08;99466.77;1727871;82;20206;-67
2021/11/21 06:45:13;;;;;;;;;;;;;;;8.51;80.99;99464.67;1727850;82;20191;-66
2021/11/21 06:47:41;;;;;;;;;;;;;;;8.54;80.92;99463.73;1728005;83;20155;-68
2021/11/21 06:50:11;;;;;;;;;;;;;;;8.57;80.84;99466.58;1727865;83;20199;-67
2021/11/21 06:52:41;;;;;;;;;;;;;;;8.64;80.73;99457.87;1727886;83;20202;-67
2021/11/21 06:55:10;;;;;;;;;;;;;;;8.70;80.47;99465.23;1728002;83;20535;-68
2021/11/21 06:57:39;;;;;;;;;;;;;;;8.74;80.30;99464.28;1727912;83;20155;-66
2021/11/21 07:00:10;;;;;;;;;;;;;;;8.78;80.17;99459.56;1728062;83;20476;-67
2021/11/21 07:02:38;;;;;;;;;;;;;;;8.85;80.05;99458.20;1741246;81;20211;-67
2021/11/21 07:05:07;;;;;;;;;;;;;;;8.93;79.89;99468.91;1727929;83;20504;-66
2021/11/21 07:07:36;;;;;;;;;;;;;;;9.02;79.64;99465.45;1727953;83;20247;-67
2021/11/21 07:10:05;;;;;;;;;;;;;;;9.08;79.29;99451.78;1727733;83;20227;-67
2021/11/21 07:12:34;;;;;;;;;;;;;;;9.14;78.92;99448.23;1726236;82;20198;-66
2021/11/21 07:15:06;;;;;;;;;;;;;;;9.17;78.63;99459.27;1722416;83;20507;-67
2021/11/21 07:17:34;;;;;;;;;;;;;;;9.18;78.34;99453.59;1722956;83;20566;-67
2021/11/21 07:20:05;;;;;;;;;;;;;;;9.21;78.02;99446.33;1722817;83;20489;-67
2021/11/21 07:22:33;;;;;;;;;;;;;;;9.26;77.92;99444.86;1614767;88;20244;-68
2021/11/21 07:25:01;;;;;;;;;;;;;;;9.29;77.56;99452.10;1614561;89;20264;-66
2021/11/21 07:27:30;;;;;;;;;;;;;;;9.28;77.33;99444.95;1614633;89;20587;-67
2021/11/21 07:30:00;;;;;;;;;;;;;;;9.27;77.26;99463.78;1614747;89;20302;-66
2021/11/21 07:32:29;;;;;;;;;;;;;;;9.27;77.16;99441.91;1615013;89;20553;-67
2021/11/21 07:34:57;;;;;;;;;;;;;;;9.31;77.10;99453.26;1614949;89;20594;-67
2021/11/21 07:37:27;;;;;;;;;;;;;;;9.34;76.96;99448.73;1614926;89;20200;-67
2021/11/21 07:39:55;;;;;;;;;;;;;;;9.34;76.96;99458.30;1614753;89;20245;-67
2021/11/21 07:42:24;;;;;;;;;;;;;;;9.33;76.96;99453.36;1614887;89;20267;-68
2021/11/21 07:44:53;;;;;;;;;;;;;;;9.32;76.95;99455.78;1614652;89;20253;-66
2021/11/21 07:47:21;;;;;;;;;;;;;;;9.32;77.00;99447.58;1677718;83;20178;-68
2021/11/21 07:49:49;;;;;;;;;;;;;;;9.35;77.00;99455.88;1722940;83;20239;-68
2021/11/21 07:52:19;;;;;;;;;;;;;;;9.38;76.97;99448.62;1723155;83;20202;-68
2021/11/21 07:54:47;;;;;;;;;;;;;;;9.41;76.99;99451.77;1722924;83;20151;-67
2021/11/21 07:57:16;;;;;;;;;;;;;;;9.44;76.96;99458.70;1722506;83;20311;-68
2021/11/21 07:59:44;;;;;;;;;;;;;;;9.46;76.87;99462.06;1722899;83;20214;-67
2021/11/21 08:02:13;;;;;;;;;;;;;;;9.46;76.78;99456.06;1722963;83;20465;-67
2021/11/21 08:04:42;;;;;;;;;;;;;;;9.48;76.74;99458.59;1723028;83;20163;-67
2021/11/21 08:07:10;;;;;;;;;;;;;;;9.49;76.62;99452.06;1722808;83;20151;-67
2021/11/21 08:09:38;;;;;;;;;;;;;;;9.51;76.48;99452.69;1722970;83;20238;-68
2021/11/21 08:12:08;;;;;;;;;;;;;;;9.50;76.37;99465.52;1723084;83;20541;-68
2021/11/21 08:14:39;;;;;;;;;;;;;;;9.47;76.36;99461.84;1722920;83;20489;-68
2021/11/21 08:17:08;;;;;;;;;;;;;;;9.45;76.40;99455.75;1723039;83;20303;-69
2021/11/21 08:19:37;;;;;;;;;;;;;;;9.45;76.36;99455.75;1722879;83;20151;-68
2021/11/21 08:22:07;;;;;;;;;;;;;;;9.48;76.25;99458.06;1722993;83;20143;-67
2021/11/21 08:24:35;;;;;;;;;;;;;;;9.51;76.14;99464.47;1722939;83;20182;-68
2021/11/21 08:27:05;;;;;;;;;;;;;;;9.50;76.13;99457.31;1722891;83;20159;-67
2021/11/21 08:29:35;;;;;;;;;;;;;;;9.50;76.00;99458.69;1722955;83;20202;-67
2021/11/21 08:32:04;;;;;;;;;;;;;;;9.52;75.95;99455.73;1723067;83;20461;-69
2021/11/21 08:34:35;;;;;;;;;;;;;;;9.52;75.84;99459.31;1723213;83;20218;-68
2021/11/21 08:37:04;;;;;;;;;;;;;;;9.57;75.68;99461.93;1723168;83;20512;-68
2021/11/21 08:39:33;;;;;;;;;;;;;;;9.61;75.38;99457.19;1722916;83;20143;-67
2021/11/21 08:42:02;;;;;;;;;;;;;;;9.63;75.11;99450.97;1722920;83;20215;-68
2021/11/21 08:44:31;;;;;;;;;;;;;;;9.65;74.84;99452.13;1722851;83;20159;-67
2021/11/21 08:46:59;;;;;;;;;;;;;;;9.66;74.60;99454.64;1722933;83;20547;-68
2021/11/21 08:49:28;;;;;;;;;;;;;;;9.67;74.42;99457.69;1723164;83;20163;-69
2021/11/21 08:51:57;;;;;;;;;;;;;;;9.68;74.23;99459.90;1722925;83;20543;-68
2021/11/21 08:54:25;;;;;;;;;;;;;;;9.70;74.10;99453.16;1723128;83;20163;-70
2021/11/21 08:56:54;;;;;;;;;;;;;;;9.72;73.77;99463.89;1723172;83;20468;-69
2021/11/21 08:59:23;;;;;;;;;;;;;;;9.69;73.74;99455.58;1723147;83;20210;-68
2021/11/21 09:01:52;;;;;;;;;;;;;;;9.70;73.79;99448.22;1722978;83;20215;-69
2021/11/21 09:04:21;;;;;;;;;;;;;;;9.70;73.72;99453.16;1723010;83;20163;-69
2021/11/21 09:06:50;;;;;;;;;;;;;;;9.70;73.73;99449.06;1723126;83;20163;-66
2021/11/21 09:09:18;;;;;;;;;;;;;;;9.73;73.66;99451.36;1723010;83;20222;-69
2021/11/21 09:11:46;;;;;;;;;;;;;;;9.76;73.43;99446.02;1723084;83;20543;-67
2021/11/21 09:14:16;;;;;;;;;;;;;;;9.73;73.40;99439.05;1726769;83;20174;-67
2021/11/21 09:16:45;;;;;;;;;;;;;;;9.76;73.48;99441.91;1727657;83;20236;-68
2021/11/21 09:19:13;;;;;;;;;;;;;;;9.77;73.38;99451.27;1727555;83;20175;-68
2021/11/21 09:24:25;;;;;;;;;;;;;;;9.82;73.38;99439.16;1689647;84;20511;-63
2021/11/21 09:26:53;;;;;;;;;;;;;;;9.88;73.21;99443.45;1686547;83;20543;-63
2021/11/21 09:29:22;;;;;;;;;;;;;;;9.89;72.87;99438.28;1695834;84;20236;-65
2021/11/21 09:31:50;;;;;;;;;;;;;;;9.90;72.60;99439.97;1701598;84;20161;-64
2021/11/21 09:34:21;;;;;;;;;;;;;;;9.90;72.53;99431.76;1702912;83;20181;-62
2021/11/21 09:36:50;;;;;;;;;;;;;;;9.94;72.42;99432.48;1712197;83;20150;-62
2021/11/21 09:39:21;;;;;;;;;;;;;;;9.97;72.07;99440.25;1714737;83;20239;-63
2021/11/21 09:41:49;;;;;;;;;;;;;;;9.98;72.03;99431.52;1714515;84;20178;-64
2021/11/21 09:44:18;;;;;;;;;;;;;;;10.01;71.92;99429.70;1727029;83;20464;-61
2021/11/21 09:46:47;;;;;;;;;;;;;;;10.02;71.70;99428.65;1788986;80;20145;-62
2021/11/21 09:49:16;;;;;;;;;;;;;;;10.03;71.65;99429.80;1789031;80;20584;-62
2021/11/21 09:51:45;;;;;;;;;;;;;;;10.05;71.48;99420.84;1789327;80;20146;-63
2021/11/21 09:54:15;;;;;;;;;;;;;;;10.08;71.39;99429.98;1789251;80;20154;-61
2021/11/21 09:56:43;;;;;;;;;;;;;;;10.12;71.28;99418.07;1789119;80;20252;-63
2021/11/21 09:59:12;;;;;;;;;;;;;;;10.12;71.34;99424.39;1785149;80;20208;-62
2021/11/21 10:01:42;;;;;;;;;;;;;;;10.15;71.25;99420.38;1773298;81;20187;-61
2021/11/21 10:04:12;;;;;;;;;;;;;;;10.16;71.27;99418.78;1771622;81;20470;-61
2021/11/21 10:06:53;;;;;;;;;;;;;;;10.17;71.12;99414.15;1772748;81;20159;-62
2021/11/21 10:09:23;;;;;;;;;;;;;;;10.15;71.13;99410.79;1772940;81;20156;-62
2021/11/21 10:12:03;;;;;;;;;;;;;;;10.14;71.06;99407.22;1773277;80;20151;-62
2021/11/21 10:20:36;;;;;;;;;;;;;;;10.15;71.25;99408.89;1769800;79;20224;-63
2021/11/21 10:23:07;;;;;;;;;;;;;;;10.15;70.92;99414.37;1796528;80;20294;-64
2021/11/21 10:25:42;;;;;;;;;;;;;;;10.17;71.02;99407.30;1759646;81;20156;-63
2021/11/21 10:28:17;;;;;;;;;;;;;;;10.18;70.88;99406.24;1762929;81;20160;-63
2021/11/21 10:31:02;;;;;;;;;;;;;;;10.18;70.88;99404.88;1764306;80;20152;-61
2021/11/21 10:33:35;;;;;;;;;;;;;;;10.18;70.91;99402.98;1774170;80;20145;-65
2021/11/21 10:36:12;;;;;;;;;;;;;;;10.21;70.53;99391.31;1768035;80;20168;-64
2021/11/21 10:38:44;;;;;;;;;;;;;;;10.22;70.40;99392.46;1767640;80;20209;-61
2021/11/21 10:41:21;;;;;;;;;;;;;;;10.23;70.20;99395.51;1759286;80;20884;-63
2021/11/21 10:43:52;;;;;;;;;;;;;;;10.25;69.99;99387.91;1747163;81;20555;-61
2021/11/21 10:46:35;;;;;;;;;;;;;;;10.28;69.82;99392.95;1745963;81;20282;-61
2021/11/21 10:49:17;;;;;;;;;;;;;;;10.27;69.99;99377.58;1750592;80;20137;-63
2021/11/21 10:51:45;;;;;;;;;;;;;;;10.24;70.25;99384.03;1776128;80;20176;-62
2021/11/21 10:54:21;;;;;;;;;;;;;;;10.23;70.50;99383.19;1783020;80;20493;-62
2021/11/21 10:56:52;;;;;;;;;;;;;;;10.18;70.98;99378.34;1768178;80;20176;-63
2021/11/21 10:59:51;;;;;;;;;;;;;;;10.17;71.12;99379.41;1790918;80;20574;-62
2021/11/21 11:02:30;;;;;;;;;;;;;;;10.18;71.37;99370.66;1651225;85;20263;-61
2021/11/21 11:05:04;;;;;;;;;;;;;;;10.15;71.44;99376.58;1657286;85;20495;-62
2021/11/21 11:07:53;;;;;;;;;;;;;;;10.14;71.43;99375.73;1653120;85;20285;-63
2021/11/21 11:10:46;;;;;;;;;;;;;;;10.12;71.35;99372.38;1656392;85;20571;-63
2021/11/21 11:13:15;;;;;;;;;;;;;;;10.12;71.26;99368.80;1671561;85;20163;-61
2021/11/21 11:15:49;;;;;;;;;;;;;;;10.08;71.15;99365.67;1645165;86;20494;-62
2021/11/21 11:18:20;;;;;;;;;;;;;;;10.07;71.15;99369.47;1661082;86;20251;-64
2021/11/21 11:20:51;;;;;;;;;;;;;;;10.07;70.99;99357.68;1735253;80;20228;-62
2021/11/21 11:23:20;;;;;;;;;;;;;;;10.09;70.76;99361.03;1788974;80;20268;-61
2021/11/21 11:25:50;;;;;;;;;;;;;;;10.11;70.82;99365.76;1751878;80;20213;-63
2021/11/21 11:28:24;;;;;;;;;;;;;;;10.11;70.60;99352.08;1778206;80;20188;-61
2021/11/21 11:30:57;;;;;;;;;;;;;;;10.12;70.56;99355.13;1753915;80;20265;-63
2021/11/21 11:33:34;;;;;;;;;;;;;;;10.14;70.57;99363.95;1765710;79;20228;-64
2021/11/21 11:36:20;;;;;;;;;;;;;;;10.15;70.13;99354.68;1750810;80;20151;-63
2021/11/21 11:39:08;;;;;;;;;;;;;;;10.18;70.15;99355.61;1739446;81;20555;-63
2021/11/21 11:41:38;;;;;;;;;;;;;;;10.22;69.86;99364.25;1762247;80;20458;-62
2021/11/21 11:44:10;;;;;;;;;;;;;;;10.24;69.58;99361.59;1748180;80;20179;-63
2021/11/21 11:46:44;;;;;;;;;;;;;;;10.26;69.30;99353.16;1761790;80;20196;-63
2021/11/21 11:49:15;;;;;;;;;;;;;;;10.25;68.82;99359.17;1768367;80;20172;-62
2021/11/21 11:51:49;;;;;;;;;;;;;;;10.24;68.73;99360.23;1726496;82;20182;-61
2021/11/21 11:57:15;;;;;;;;;;;;;;;10.25;68.35;99355.59;1734647;83;20223;-61
2021/11/21 11:59:59;;;;;;;;;;;;;;;10.23;67.99;99349.50;1797204;80;20265;-64
2021/11/21 12:05:35;;;;;;;;;;;;;;;10.25;67.43;99344.11;1780576;79;20203;-62
2021/11/21 12:11:01;;;;;;;;;;;;;;;10.22;66.49;99353.30;1796905;80;20197;-65
2021/11/21 12:13:38;;;;;;;;;;;;;;;10.23;66.73;99346.23;1768400;80;20533;-64
2021/11/21 12:19:05;;;;;;;;;;;;;;;10.28;66.66;99345.57;1787701;80;20616;-62
2021/11/21 12:21:50;;;;;;;;;;;;;;;10.28;65.63;99334.09;1763285;79;20220;-64
2021/11/21 12:24:27;;;;;;;;;;;;;;;10.28;65.57;99338.19;1756255;81;20227;-64
2021/11/21 12:27:02;;;;;;;;;;;;;;;10.31;65.90;99339.13;1767812;80;20152;-59
2021/11/21 12:30:00;;;;;;;;;;;;;;;10.34;65.02;99327.72;1770570;80;20211;-63
2021/11/21 12:33:01;;;;;;;;;;;;;;;10.34;65.31;99340.05;1783394;80;20525;-62
2021/11/21 12:41:21;;;;;;;;;;;;;;;10.36;65.57;99334.34;1740678;82;20144;-63
2021/11/21 12:46:38;;;;;;;;;;;;;;;10.34;65.59;99337.30;1768667;80;20144;-62
2021/11/21 12:49:07;;;;;;;;;;;;;;;10.32;65.50;99331.22;1771757;79;20568;-63
2021/11/21 12:54:44;;;;;;;;;;;;;;;10.33;65.39;99334.27;1748072;80;20152;-63
2021/11/21 12:57:14;;;;;;;;;;;;;;;10.32;65.60;99338.06;1792188;79;20189;-63
2021/11/21 12:59:51;;;;;;;;;;;;;;;10.31;65.37;99341.02;1800158;79;20173;-63
2021/11/21 13:02:56;;;;;;;;;;;;;;;10.28;66.54;99341.46;1799910;80;20202;-62
2021/11/21 13:05:25;;;;;;;;;;;;;;;10.29;65.85;99332.19;1799292;80;20549;-63
2021/11/21 13:07:54;;;;;;;;;;;;;;;10.25;65.79;99327.69;1799409;80;20212;-61
2021/11/21 13:10:23;;;;;;;;;;;;;;;10.23;65.78;99328.44;1799809;80;20201;-62
2021/11/21 13:12:57;;;;;;;;;;;;;;;10.20;65.75;99330.25;1779856;80;20189;-63
2021/11/21 13:15:26;;;;;;;;;;;;;;;10.16;65.76;99336.67;1750895;81;20215;-62
2021/11/21 13:18:18;;;;;;;;;;;;;;;10.14;65.78;99327.00;1755470;82;20200;-64
2021/11/21 13:24:04;;;;;;;;;;;;;;;10.09;65.60;99334.50;1765963;80;20492;-63
2021/11/21 13:26:58;;;;;;;;;;;;;;;10.05;65.80;99331.06;1781871;80;20243;-63
2021/11/21 13:29:46;;;;;;;;;;;;;;;10.02;65.91;99332.88;1783274;79;20257;-63
2021/11/21 13:32:35;;;;;;;;;;;;;;;10.03;66.07;99331.81;1766116;79;20186;-64
2021/11/21 13:35:30;;;;;;;;;;;;;;;10.03;65.84;99328.55;1790480;79;20495;-63
2021/11/21 13:38:02;;;;;;;;;;;;;;;10.02;65.89;99326.87;1784821;79;20497;-64
2021/11/21 13:40:31;;;;;;;;;;;;;;;10.03;65.68;99329.91;1783470;79;20247;-63
2021/11/21 13:43:06;;;;;;;;;;;;;;;10.02;65.64;99324.66;1813206;79;20252;-64
2021/11/21 13:45:51;;;;;;;;;;;;;;;10.02;65.58;99328.77;1814438;79;20536;-64
2021/11/21 13:48:33;;;;;;;;;;;;;;;10.02;65.57;99335.61;1771043;79;20224;-57